Nearby METAR Reports

 

KSJC - San Jose, California, USA
Distance from station: NE 14km
Updated: 25/06/2022 19:53
Clear
Clear
 Wind from NNE
Wind: NNE 7 km/h
Temperature: 26°C
Dew Point: 13°C
Humidity: 45%
Barometer: 1013.2 hPa
Clouds: Clear
Visibility: 16 km
2022/06/25 18:53 KSJC 251853Z 02004KT 10SM CLR 26/13 A2992 RMK AO2 SLP129 T02560133
KNUQ - Moffett Nas/Mtn, California, USA
Distance from station: N 14km
Updated: 25/06/2022 20:15
Clear
Clear
 Wind from N
Wind: N 17 km/h
Temperature: 23°C
Dew Point: 13°C
Humidity: 53%
Barometer: 1013.2 hPa
Clouds: Clear
Visibility: 14 km
2022/06/25 19:15 KNUQ 251915Z AUTO 35009KT 9SM CLR 23/13 A2992 RMK AO2
 
KPAO - Palo Alto, California, USA
Distance from station: NNW 23km
Updated: 25/06/2022 19:47
Clear
Clear
 Wind from NNW
Wind: NNW 19 km/h
Temperature: 21°C
Dew Point: 14°C
Humidity: 64%
Barometer: 1013.5 hPa
Clouds: Clear
Visibility: 16 km
2022/06/25 18:47 KPAO 251847Z 34010KT 10SM SKC 21/14 A2993
KRHV - San Jose/Reid, California, USA
Distance from station: ENE 19km
Updated: 25/06/2022 18:47
NOT Current
Clear
Clear
 Wind from calm
Wind: Calm
Temperature: 26°C
Dew Point: 11°C
Humidity: 39%
Barometer: 1013.2 hPa
Clouds: Clear
Visibility: 16 km
2022/06/25 17:47 KRHV 251747Z 00000KT 10SM SKC 26/11 A2992
 
KOAK - Oakland, California, USA
Distance from station: NNW 50km
Updated: 25/06/2022 19:53
Clear
Clear
 Wind from WNW
Wind: WNW 19 km/h
Temperature: 21°C
Dew Point: 12°C
Humidity: 57%
Barometer: 1013.9 hPa
Clouds: Clear
Visibility: 13 km
2022/06/25 18:53 KOAK 251853Z 30010KT 8SM CLR 21/12 A2994 RMK AO2 SLP137 T02060122
KSQL - San Carlos Airpo, California, USA
Distance from station: NW 34km
Updated: 25/06/2022 19:47
Clear
Clear
 Wind from N
Wind: N 17 km/h
Temperature: 21°C
Dew Point: 13°C
Humidity: 60%
Barometer: 1013.5 hPa
Clouds: Clear
Visibility: 16 km
2022/06/25 18:47 KSQL 251847Z 36009KT 10SM CLR 21/13 A2993
 
KSFO - San Francisco, California, USA
Distance from station: NW 49km
Updated: 25/06/2022 19:56
Few Clouds
Few Clouds
 Wind from NW
Wind: NW 30 km/h
Temperature: 20°C
Dew Point: 11°C
Humidity: 56%
Barometer: 1013.5 hPa
Clouds: Few Clouds
Visibility: 16 km
Cloud details: Few Clouds 244 m
2022/06/25 18:56 KSFO 251856Z 31016KT 10SM FEW008 20/11 A2993 RMK AO2 SLP134 T02000111
KE16 - San Martin, California, USA
Distance from station: ESE 43km
Updated: 25/06/2022 20:15
Clear
Clear
 Wind from SE
Wind: SE 9 km/h
Temperature: 30°C
Dew Point: 7°C
Humidity: 24%
Barometer: 1013.2 hPa
Clouds: Clear
Visibility: 16 km
2022/06/25 19:15 KE16 251915Z AUTO 14005KT 10SM CLR 30/07 A2992 RMK AO2 PWINO PNO
 
KWVI - Watsonville, California, USA
Distance from station: SSE 44km
Updated: 25/06/2022 19:53
Clear
Clear
 Wind from SSW
Wind: SSW 15 km/h
Temperature: 19°C
Dew Point: 12°C
Humidity: 64%
Barometer: 1014.6 hPa
Clouds: Clear
Visibility: 16 km
2022/06/25 18:53 KWVI 251853Z AUTO 21008KT 160V230 10SM CLR 19/12 A2996 RMK AO2 SLP145 T01940117
KHAF - Half Moon Bay, California, USA
Distance from station: WNW 50km
Updated: 25/06/2022 20:15
Mist, Few clouds
Mist, Few clouds
 Wind from WSW
Wind: WSW 13 km/h
Temperature: 15°C
Dew Point: 13°C
Humidity: 88%
Barometer: 1015.2 hPa
Summary: Mist
Clouds: Few Clouds
Visibility: 6 km
Cloud details: Few Clouds 152 m
2022/06/25 19:15 KHAF 251915Z AUTO 24007KT 4SM BR FEW005 15/13 A2998 RMK AO2
 
KHWD - Hayward, California, USA
Distance from station: N 44km
Updated: 25/06/2022 19:54
Clear
Clear
 Wind from WNW
Wind: WNW 15 km/h
Temperature: 23°C
Dew Point: 13°C
Humidity: 53%
Barometer: 1013.5 hPa
Clouds: Clear
Visibility: 16 km
2022/06/25 18:54 KHWD 251854Z 30008KT 10SM CLR 23/13 A2993 RMK AO2 SLP142 T02280133
KLVK - Livermore, California, USA
Distance from station: NNE 51km
Updated: 25/06/2022 19:53
Clear
Clear
 Wind from varies
Wind: varies 9 km/h
Temperature: 31°C
Dew Point: 11°C
Humidity: 29%
Barometer: 1012.2 hPa
Clouds: Clear
Visibility: 16 km
2022/06/25 18:53 KLVK 251853Z VRB05KT 10SM CLR 31/11 A2989 RMK AO2 SLP118 T03110111